Cannon Beach, OR (97110)

10:52 PM PST en Diciembre 20, 2014 (GMT -0800)
Ocean Vista Dr | Change Station
CLOSE
Current Station
Estación meteorológica personal
Location: Seaside, OR
Altura: 16 ft
Estaciones meteorológicas cercanas

Alt 16 ft 45.98 °N, 123.93 °W | Updated 7 seconds ago

Nublado
Nublado
57.4 ° F
Sensación térmica 57.4 ° F
N
24.4
Viento Variable Viento desde ONO
Gusts 36.0 mph

Hoy
Alta -- | Baja -- ° F
--% Posibilidad de precipitaciones
Ayer
Alta -- | Baja -- ° F
Precip. -- pul
7:53 AM 4:33 PM
Creciente menguante, 1% visible
Presión 29.69 pul
Visibilidad 10.0 Millas
Nubes Nublado 1100 ft
Punto de rocío 55 ° F
Humedad 92%
Precipitaciones 2.02 pul
Espesor de la nieve No disponible.
UV 0.0 de una escala de 12
Polen .50 de una escala de 12
Calidad del aire No disponible.
Flu Activity No disponible.
SPECI KAST 210644Z AUTO 25015G25KT 10SM -RA OVC011 13/12 A2969 RMK AO2 PK WND 25031/0600 PRESRR P0001 T01330117 $

More Conditions Fewer Conditions

Presión 29.69 pul
Visibilidad 10.0 Millas
Nubes Nublado 1100 ft
Punto de rocío 55 ° F
Humedad 92%
Precipitaciones 2.02 pul
Espesor de la nieve No disponible.
UV 0.0 de una escala de 12
Polen .50 de una escala de 12
Calidad del aire No disponible.
Flu Activity No disponible.
SPECI KAST 210644Z AUTO 25015G25KT 10SM -RA OVC011 13/12 A2969 RMK AO2 PK WND 25031/0600 PRESRR P0001 T01330117 $

More Conditions Fewer Conditions

10-Day Weather Forecast

Almanac

Astronomía

Dec. 20, 2014 Salida Puesta
Hora real
Crepúsculo civil
Crepúsculo náutico
Crepúsculo astronómico
Luna
Horas de luz
Horas de luz
Tomorrow will be .
, % of the Moon is Illuminated

Extremos de hoy

Máximos del estado Bajos del estado

Community

WunderPhotos

Upload Photos

1,779,360 ¡fotos cargadas!

WunderBlogs® & News

Nearby

Calidad del aire

  Calidad del aire Índice AQ Contaminante
Not available.

Grosos de nieve

Estación Profundido Altura

Actividad de terremotos

Ciudad Distance Mag. Tiempo y dato
Magnitud mínima muestra es 2,5.

Temperaturas de aguas costeras

Lugar Temperatura

Estaciones meteorológicas cercanas